sensor_id;sensor_type;location;lat;lon;timestamp;pressure;altitude;pressure_sealevel;temperature;humidity
11523;BME280;40093;43.224;27.910;2023-02-19T00:01:06;100440.63;;;13.22;72.00
11523;BME280;40093;43.224;27.910;2023-02-19T00:03:34;100441.03;;;13.17;72.18
11523;BME280;40093;43.224;27.910;2023-02-19T00:06:03;100441.03;;;13.06;72.27
11523;BME280;40093;43.224;27.910;2023-02-19T00:08:30;100426.44;;;13.06;72.47
11523;BME280;40093;43.224;27.910;2023-02-19T00:11:01;100424.84;;;13.12;72.18
11523;BME280;40093;43.224;27.910;2023-02-19T00:13:29;100420.88;;;12.95;72.43
11523;BME280;40093;43.224;27.910;2023-02-19T00:15:55;100418.53;;;13.01;72.35
11523;BME280;40093;43.224;27.910;2023-02-19T00:18:22;100410.66;;;12.96;72.95
11523;BME280;40093;43.224;27.910;2023-02-19T00:20:50;100413.78;;;12.98;72.67
11523;BME280;40093;43.224;27.910;2023-02-19T00:23:18;100410.59;;;12.89;73.02
11523;BME280;40093;43.224;27.910;2023-02-19T00:25:45;100405.06;;;12.89;72.99
11523;BME280;40093;43.224;27.910;2023-02-19T00:28:11;100398.75;;;12.92;73.00
11523;BME280;40093;43.224;27.910;2023-02-19T00:30:38;100402.69;;;12.70;73.30
11523;BME280;40093;43.224;27.910;2023-02-19T00:33:05;100393.19;;;12.57;73.40
11523;BME280;40093;43.224;27.910;2023-02-19T00:35:33;100383.75;;;12.61;73.11
11523;BME280;40093;43.224;27.910;2023-02-19T00:38:00;100382.16;;;12.71;72.52
11523;BME280;40093;43.224;27.910;2023-02-19T00:40:28;100382.56;;;12.80;72.07
11523;BME280;40093;43.224;27.910;2023-02-19T00:42:55;100380.63;;;12.84;71.62
11523;BME280;40093;43.224;27.910;2023-02-19T00:45:22;100368.75;;;12.66;72.00
11523;BME280;40093;43.224;27.910;2023-02-19T00:47:49;100385.72;;;12.82;71.71
11523;BME280;40093;43.224;27.910;2023-02-19T00:50:16;100369.56;;;12.91;71.48
11523;BME280;40093;43.224;27.910;2023-02-19T00:52:43;100361.31;;;12.98;71.05
11523;BME280;40093;43.224;27.910;2023-02-19T00:55:10;100358.56;;;13.01;70.70
11523;BME280;40093;43.224;27.910;2023-02-19T00:57:38;100354.59;;;12.99;70.62
11523;BME280;40093;43.224;27.910;2023-02-19T01:00:06;100348.31;;;12.95;70.86
11523;BME280;40093;43.224;27.910;2023-02-19T01:02:33;100343.56;;;12.99;70.58
11523;BME280;40093;43.224;27.910;2023-02-19T01:05:00;100335.66;;;12.97;70.51
11523;BME280;40093;43.224;27.910;2023-02-19T01:07:27;100335.66;;;13.01;70.37
11523;BME280;40093;43.224;27.910;2023-02-19T01:09:54;100340.78;;;13.02;70.26
11523;BME280;40093;43.224;27.910;2023-02-19T01:12:20;100333.25;;;12.89;70.83
11523;BME280;40093;43.224;27.910;2023-02-19T01:14:51;100332.50;;;12.85;70.86
11523;BME280;40093;43.224;27.910;2023-02-19T01:17:18;100323.00;;;12.93;70.83
11523;BME280;40093;43.224;27.910;2023-02-19T01:19:45;100324.97;;;12.89;70.69
11523;BME280;40093;43.224;27.910;2023-02-19T01:22:12;100323.00;;;12.93;70.40
11523;BME280;40093;43.224;27.910;2023-02-19T01:24:39;100315.94;;;12.95;70.49
11523;BME280;40093;43.224;27.910;2023-02-19T01:27:05;100313.56;;;13.01;70.38
11523;BME280;40093;43.224;27.910;2023-02-19T01:29:32;100311.59;;;12.98;70.26
11523;BME280;40093;43.224;27.910;2023-02-19T01:32:01;100312.38;;;13.05;70.23
11523;BME280;40093;43.224;27.910;2023-02-19T01:34:30;100308.03;;;13.08;70.02
11523;BME280;40093;43.224;27.910;2023-02-19T01:36:58;100302.50;;;13.08;69.67
11523;BME280;40093;43.224;27.910;2023-02-19T01:39:25;100307.63;;;13.13;69.78
11523;BME280;40093;43.224;27.910;2023-02-19T01:41:52;100295.41;;;13.00;70.35
11523;BME280;40093;43.224;27.910;2023-02-19T01:47:39;100283.56;;;13.03;70.38
11523;BME280;40093;43.224;27.910;2023-02-19T01:50:06;100277.63;;;13.15;70.07
11523;BME280;40093;43.224;27.910;2023-02-19T01:52:35;100288.31;;;13.09;69.93
11523;BME280;40093;43.224;27.910;2023-02-19T01:55:04;100287.09;;;13.21;69.81
11523;BME280;40093;43.224;27.910;2023-02-19T01:57:34;100281.19;;;13.15;69.79
11523;BME280;40093;43.224;27.910;2023-02-19T02:00:05;100286.34;;;12.99;70.38
11523;BME280;40093;43.224;27.910;2023-02-19T02:02:34;100279.59;;;13.04;70.09
11523;BME280;40093;43.224;27.910;2023-02-19T02:05:03;100273.31;;;12.96;70.65
11523;BME280;40093;43.224;27.910;2023-02-19T02:07:30;100278.84;;;13.07;70.40
11523;BME280;40093;43.224;27.910;2023-02-19T02:10:14;100269.34;;;13.04;70.24
11523;BME280;40093;43.224;27.910;2023-02-19T02:12:47;100281.97;;;13.16;70.24
11523;BME280;40093;43.224;27.910;2023-02-19T02:15:15;100263.03;;;13.11;70.04
11523;BME280;40093;43.224;27.910;2023-02-19T02:17:50;100272.50;;;13.10;70.23
11523;BME280;40093;43.224;27.910;2023-02-19T02:20:37;100274.88;;;13.11;69.96
11523;BME280;40093;43.224;27.910;2023-02-19T02:23:09;100276.44;;;13.09;70.29
11523;BME280;40093;43.224;27.910;2023-02-19T02:25:59;100277.25;;;12.99;70.57
11523;BME280;40093;43.224;27.910;2023-02-19T02:28:50;100278.84;;;13.00;70.54
11523;BME280;40093;43.224;27.910;2023-02-19T02:31:27;100280.44;;;12.94;70.63
11523;BME280;40093;43.224;27.910;2023-02-19T02:33:58;100274.13;;;12.97;70.74
11523;BME280;40093;43.224;27.910;2023-02-19T02:36:29;100273.72;;;12.95;70.84
11523;BME280;40093;43.224;27.910;2023-02-19T02:38:58;100273.31;;;13.00;70.64
11523;BME280;40093;43.224;27.910;2023-02-19T02:41:26;100276.06;;;13.00;70.58
11523;BME280;40093;43.224;27.910;2023-02-19T02:43:53;100274.13;;;12.93;70.58
11523;BME280;40093;43.224;27.910;2023-02-19T02:46:25;100278.84;;;13.00;70.57
11523;BME280;40093;43.224;27.910;2023-02-19T02:48:56;100272.53;;;12.96;70.68
11523;BME280;40093;43.224;27.910;2023-02-19T02:51:26;100278.06;;;12.96;70.76
11523;BME280;40093;43.224;27.910;2023-02-19T02:53:57;100284.31;;;12.93;70.43
11523;BME280;40093;43.224;27.910;2023-02-19T02:56:41;100279.59;;;12.90;70.82
11523;BME280;40093;43.224;27.910;2023-02-19T02:59:13;100287.09;;;12.93;70.65
11523;BME280;40093;43.224;27.910;2023-02-19T03:01:42;100286.31;;;12.82;70.93
11523;BME280;40093;43.224;27.910;2023-02-19T03:04:34;100289.09;;;12.75;70.96
11523;BME280;40093;43.224;27.910;2023-02-19T03:07:24;100294.63;;;12.71;71.46
11523;BME280;40093;43.224;27.910;2023-02-19T03:09:53;100294.22;;;12.73;71.19
11523;BME280;40093;43.224;27.910;2023-02-19T03:12:23;100291.47;;;12.66;71.49
11523;BME280;40093;43.224;27.910;2023-02-19T03:15:09;100293.81;;;12.71;71.40
11523;BME280;40093;43.224;27.910;2023-02-19T03:17:58;100288.31;;;12.67;71.51
11523;BME280;40093;43.224;27.910;2023-02-19T03:20:49;100291.84;;;12.68;71.28
11523;BME280;40093;43.224;27.910;2023-02-19T03:23:18;100283.56;;;12.64;71.52
11523;BME280;40093;43.224;27.910;2023-02-19T03:25:46;100288.69;;;12.55;71.91
11523;BME280;40093;43.224;27.910;2023-02-19T03:28:33;100291.47;;;12.52;72.27
11523;BME280;40093;43.224;27.910;2023-02-19T03:31:23;100291.84;;;12.54;72.17
11523;BME280;40093;43.224;27.910;2023-02-19T03:33:53;100298.56;;;12.53;72.13
11523;BME280;40093;43.224;27.910;2023-02-19T03:36:24;100303.69;;;12.51;72.19
11523;BME280;40093;43.224;27.910;2023-02-19T03:38:58;100297.38;;;12.50;72.11
11523;BME280;40093;43.224;27.910;2023-02-19T03:41:31;100300.94;;;12.51;72.03
11523;BME280;40093;43.224;27.910;2023-02-19T03:44:06;100307.22;;;12.55;72.00
11523;BME280;40093;43.224;27.910;2023-02-19T03:46:43;100300.91;;;12.37;72.33
11523;BME280;40093;43.224;27.910;2023-02-19T03:49:16;100299.31;;;12.36;72.41
11523;BME280;40093;43.224;27.910;2023-02-19T03:51:52;100300.91;;;12.37;72.32
11523;BME280;40093;43.224;27.910;2023-02-19T03:54:22;100307.22;;;12.34;72.37
11523;BME280;40093;43.224;27.910;2023-02-19T03:57:00;100302.47;;;12.31;72.39
11523;BME280;40093;43.224;27.910;2023-02-19T03:59:31;100303.25;;;12.32;72.62
11523;BME280;40093;43.224;27.910;2023-02-19T04:02:03;100310.75;;;12.24;72.55
11523;BME280;40093;43.224;27.910;2023-02-19T04:04:34;100310.34;;;12.19;72.85
11523;BME280;40093;43.224;27.910;2023-02-19T04:07:04;100311.91;;;12.20;72.97
11523;BME280;40093;43.224;27.910;2023-02-19T04:09:35;100321.34;;;12.15;72.80
11523;BME280;40093;43.224;27.910;2023-02-19T04:12:04;100336.31;;;12.14;72.99
11523;BME280;40093;43.224;27.910;2023-02-19T04:14:35;100342.63;;;12.11;73.18
11523;BME280;40093;43.224;27.910;2023-02-19T04:17:08;100344.25;;;12.19;72.55
11523;BME280;40093;43.224;27.910;2023-02-19T04:19:38;100346.22;;;12.26;72.40
11523;BME280;40093;43.224;27.910;2023-02-19T04:22:09;100346.22;;;12.22;71.47
11523;BME280;40093;43.224;27.910;2023-02-19T04:24:39;100346.59;;;12.24;71.05
11523;BME280;40093;43.224;27.910;2023-02-19T04:27:08;100337.53;;;12.27;70.58
11523;BME280;40093;43.224;27.910;2023-02-19T04:29:35;100348.56;;;12.20;70.26
11523;BME280;40093;43.224;27.910;2023-02-19T04:32:02;100341.88;;;12.21;70.13
11523;BME280;40093;43.224;27.910;2023-02-19T04:34:30;100339.53;;;12.27;69.63
11523;BME280;40093;43.224;27.910;2023-02-19T04:36:57;100338.75;;;12.33;68.96
11523;BME280;40093;43.224;27.910;2023-02-19T04:39:25;100321.41;;;12.36;68.51
11523;BME280;40093;43.224;27.910;2023-02-19T04:41:52;100322.19;;;12.37;68.73
11523;BME280;40093;43.224;27.910;2023-02-19T04:44:19;100319.84;;;12.42;68.16
11523;BME280;40093;43.224;27.910;2023-02-19T04:46:46;100339.91;;;12.39;67.70
11523;BME280;40093;43.224;27.910;2023-02-19T04:49:13;100337.19;;;12.42;67.44
11523;BME280;40093;43.224;27.910;2023-02-19T04:51:40;100334.06;;;12.51;66.54
11523;BME280;40093;43.224;27.910;2023-02-19T04:54:08;100339.94;;;12.49;66.06
11523;BME280;40093;43.224;27.910;2023-02-19T04:56:36;100351.00;;;12.60;65.52
11523;BME280;40093;43.224;27.910;2023-02-19T04:59:03;100349.03;;;12.57;65.56
11523;BME280;40093;43.224;27.910;2023-02-19T05:01:30;100367.56;;;12.56;65.24
11523;BME280;40093;43.224;27.910;2023-02-19T05:03:57;100371.91;;;12.61;65.01
11523;BME280;40093;43.224;27.910;2023-02-19T05:06:24;100371.13;;;12.64;64.93
11523;BME280;40093;43.224;27.910;2023-02-19T05:08:51;100386.91;;;12.67;64.50
11523;BME280;40093;43.224;27.910;2023-02-19T05:11:18;100391.63;;;12.66;64.52
11523;BME280;40093;43.224;27.910;2023-02-19T05:13:46;100390.84;;;12.76;64.01
11523;BME280;40093;43.224;27.910;2023-02-19T05:16:14;100387.69;;;12.71;63.68
11523;BME280;40093;43.224;27.910;2023-02-19T05:18:42;100396.00;;;12.67;63.98
11523;BME280;40093;43.224;27.910;2023-02-19T05:21:09;100397.16;;;12.70;63.64
11523;BME280;40093;43.224;27.910;2023-02-19T05:23:37;100395.59;;;12.62;63.63
11523;BME280;40093;43.224;27.910;2023-02-19T05:26:07;100404.66;;;12.66;63.36
11523;BME280;40093;43.224;27.910;2023-02-19T05:28:35;100406.63;;;12.76;62.93
11523;BME280;40093;43.224;27.910;2023-02-19T05:31:06;100425.19;;;12.79;62.65
11523;BME280;40093;43.224;27.910;2023-02-19T05:33:34;100421.63;;;12.82;62.48
11523;BME280;40093;43.224;27.910;2023-02-19T05:36:04;100427.97;;;12.86;62.03
11523;BME280;40093;43.224;27.910;2023-02-19T05:38:32;100435.84;;;12.87;61.97
11523;BME280;40093;43.224;27.910;2023-02-19T05:41:06;100432.31;;;12.97;61.68
11523;BME280;40093;43.224;27.910;2023-02-19T05:43:33;100451.66;;;13.01;61.46
11523;BME280;40093;43.224;27.910;2023-02-19T05:46:00;100461.16;;;13.14;61.05
11523;BME280;40093;43.224;27.910;2023-02-19T05:48:29;100463.56;;;13.26;60.65
11523;BME280;40093;43.224;27.910;2023-02-19T05:51:00;100471.81;;;13.36;60.18
11523;BME280;40093;43.224;27.910;2023-02-19T05:53:27;100467.47;;;13.53;59.60
11523;BME280;40093;43.224;27.910;2023-02-19T05:55:54;100470.63;;;13.62;59.38
11523;BME280;40093;43.224;27.910;2023-02-19T05:58:21;100484.47;;;13.69;58.85
11523;BME280;40093;43.224;27.910;2023-02-19T06:00:47;100479.28;;;13.78;58.66
11523;BME280;40093;43.224;27.910;2023-02-19T06:03:16;100482.81;;;13.96;58.27
11523;BME280;40093;43.224;27.910;2023-02-19T06:05:45;100484.75;;;14.20;57.57
11523;BME280;40093;43.224;27.910;2023-02-19T06:08:13;100498.13;;;14.46;56.70
11523;BME280;40093;43.224;27.910;2023-02-19T06:10:40;100497.31;;;14.49;56.60
11523;BME280;40093;43.224;27.910;2023-02-19T06:13:08;100501.94;;;14.73;55.97
11523;BME280;40093;43.224;27.910;2023-02-19T06:15:35;100497.19;;;14.77;55.76
11523;BME280;40093;43.224;27.910;2023-02-19T06:18:03;100501.06;;;14.90;55.02
11523;BME280;40093;43.224;27.910;2023-02-19T06:20:30;100501.09;;;14.83;55.19
11523;BME280;40093;43.224;27.910;2023-02-19T06:22:58;100496.34;;;14.83;55.24
11523;BME280;40093;43.224;27.910;2023-02-19T06:25:25;100502.97;;;15.03;54.98
11523;BME280;40093;43.224;27.910;2023-02-19T06:27:52;100509.53;;;15.26;54.52
11523;BME280;40093;43.224;27.910;2023-02-19T06:30:19;100516.16;;;15.46;53.80
11523;BME280;40093;43.224;27.910;2023-02-19T06:32:46;100520.81;;;15.56;53.65
11523;BME280;40093;43.224;27.910;2023-02-19T06:35:13;100523.19;;;15.61;53.44
11523;BME280;40093;43.224;27.910;2023-02-19T06:37:39;100519.91;;;15.73;53.00
11523;BME280;40093;43.224;27.910;2023-02-19T06:40:08;100507.66;;;15.67;53.14
11523;BME280;40093;43.224;27.910;2023-02-19T06:42:35;100497.53;;;15.47;53.63
11523;BME280;40093;43.224;27.910;2023-02-19T06:45:02;100488.78;;;15.48;53.79
11523;BME280;40093;43.224;27.910;2023-02-19T06:47:30;100491.19;;;15.46;53.93
11523;BME280;40093;43.224;27.910;2023-02-19T06:49:57;100487.44;;;15.70;53.86
11523;BME280;40093;43.224;27.910;2023-02-19T06:52:25;100505.19;;;15.76;53.90
11523;BME280;40093;43.224;27.910;2023-02-19T06:54:52;100516.94;;;15.94;53.10
11523;BME280;40093;43.224;27.910;2023-02-19T06:57:20;100524.88;;;15.92;53.26
11523;BME280;40093;43.224;27.910;2023-02-19T06:59:47;100519.34;;;15.92;53.39
11523;BME280;40093;43.224;27.910;2023-02-19T07:02:14;100529.31;;;15.83;53.98
11523;BME280;40093;43.224;27.910;2023-02-19T07:04:41;100524.41;;;15.97;53.50
11523;BME280;40093;43.224;27.910;2023-02-19T07:07:09;100525.59;;;16.00;53.70
11523;BME280;40093;43.224;27.910;2023-02-19T07:09:36;100515.91;;;15.74;54.40
11523;BME280;40093;43.224;27.910;2023-02-19T07:12:04;100501.94;;;15.85;54.13
11523;BME280;40093;43.224;27.910;2023-02-19T07:14:32;100497.19;;;15.85;54.09
11523;BME280;40093;43.224;27.910;2023-02-19T07:16:59;100497.34;;;16.08;53.87
11523;BME280;40093;43.224;27.910;2023-02-19T07:19:26;100505.94;;;16.21;53.64
11523;BME280;40093;43.224;27.910;2023-02-19T07:21:53;100506.19;;;16.33;53.31
11523;BME280;40093;43.224;27.910;2023-02-19T07:24:20;100510.81;;;16.47;52.95
11523;BME280;40093;43.224;27.910;2023-02-19T07:26:48;100527.16;;;16.41;52.98
11523;BME280;40093;43.224;27.910;2023-02-19T07:29:15;100528.50;;;16.26;53.11
11523;BME280;40093;43.224;27.910;2023-02-19T07:31:43;100537.94;;;16.36;52.62
11523;BME280;40093;43.224;27.910;2023-02-19T07:34:10;100529.81;;;16.52;52.44
11523;BME280;40093;43.224;27.910;2023-02-19T07:36:37;100534.31;;;16.72;52.02
11523;BME280;40093;43.224;27.910;2023-02-19T07:39:04;100515.78;;;16.92;51.62
11523;BME280;40093;43.224;27.910;2023-02-19T07:41:31;100538.38;;;17.24;50.89
11523;BME280;40093;43.224;27.910;2023-02-19T07:43:58;100535.41;;;17.08;50.80
11523;BME280;40093;43.224;27.910;2023-02-19T07:46:25;100538.09;;;17.15;50.99
11523;BME280;40093;43.224;27.910;2023-02-19T07:48:53;100540.22;;;17.34;50.12
11523;BME280;40093;43.224;27.910;2023-02-19T07:51:20;100522.16;;;16.93;50.44
11523;BME280;40093;43.224;27.910;2023-02-19T07:53:48;100532.00;;;16.97;50.24
11523;BME280;40093;43.224;27.910;2023-02-19T07:56:16;100543.94;;;16.64;51.12
11523;BME280;40093;43.224;27.910;2023-02-19T07:58:43;100524.78;;;16.73;50.87
11523;BME280;40093;43.224;27.910;2023-02-19T08:01:13;100522.47;;;16.98;50.64
11523;BME280;40093;43.224;27.910;2023-02-19T08:03:41;100505.22;;;17.10;50.33
11523;BME280;40093;43.224;27.910;2023-02-19T08:06:09;100499.88;;;17.19;50.37
11523;BME280;40093;43.224;27.910;2023-02-19T08:08:36;100510.28;;;17.15;50.36
11523;BME280;40093;43.224;27.910;2023-02-19T08:11:05;100504.47;;;17.59;49.89
11523;BME280;40093;43.224;27.910;2023-02-19T08:13:51;100495.28;;;17.62;49.05
11523;BME280;40093;43.224;27.910;2023-02-19T08:16:18;100497.44;;;17.51;49.49
11523;BME280;40093;43.224;27.910;2023-02-19T08:18:46;100489.28;;;17.63;48.99
11523;BME280;40093;43.224;27.910;2023-02-19T08:21:15;100500.41;;;17.63;49.34
11523;BME280;40093;43.224;27.910;2023-02-19T08:23:43;100469.69;;;17.70;48.90
11523;BME280;40093;43.224;27.910;2023-02-19T08:26:12;100470.28;;;17.59;49.24
11523;BME280;40093;43.224;27.910;2023-02-19T08:28:39;100481.72;;;17.87;48.77
11523;BME280;40093;43.224;27.910;2023-02-19T08:31:08;100457.81;;;17.89;48.37
11523;BME280;40093;43.224;27.910;2023-02-19T08:33:35;100477.72;;;17.88;48.88
11523;BME280;40093;43.224;27.910;2023-02-19T08:36:03;100437.03;;;17.94;48.54
11523;BME280;40093;43.224;27.910;2023-02-19T08:38:32;100474.31;;;18.00;48.77
11523;BME280;40093;43.224;27.910;2023-02-19T08:41:03;100484.75;;;18.15;48.35
11523;BME280;40093;43.224;27.910;2023-02-19T08:43:30;100463.34;;;18.32;48.19
11523;BME280;40093;43.224;27.910;2023-02-19T08:45:57;100481.31;;;18.08;48.44
11523;BME280;40093;43.224;27.910;2023-02-19T08:48:24;100481.50;;;17.97;48.82
11523;BME280;40093;43.224;27.910;2023-02-19T08:50:55;100482.88;;;18.09;48.70
11523;BME280;40093;43.224;27.910;2023-02-19T08:53:22;100473.03;;;18.24;48.72
11523;BME280;40093;43.224;27.910;2023-02-19T08:55:51;100463.03;;;18.07;48.82
11523;BME280;40093;43.224;27.910;2023-02-19T08:58:18;100478.47;;;18.11;49.15
11523;BME280;40093;43.224;27.910;2023-02-19T09:00:45;100477.03;;;18.23;48.93
11523;BME280;40093;43.224;27.910;2023-02-19T09:03:13;100482.19;;;18.05;49.22
11523;BME280;40093;43.224;27.910;2023-02-19T09:05:40;100474.38;;;18.39;48.77
11523;BME280;40093;43.224;27.910;2023-02-19T09:08:09;100471.63;;;18.55;48.44
11523;BME280;40093;43.224;27.910;2023-02-19T09:10:37;100476.91;;;18.69;48.22
11523;BME280;40093;43.224;27.910;2023-02-19T09:13:05;100469.00;;;18.83;47.92
11523;BME280;40093;43.224;27.910;2023-02-19T09:15:32;100471.38;;;18.85;47.47
11523;BME280;40093;43.224;27.910;2023-02-19T09:17:59;100461.91;;;18.63;48.00
11523;BME280;40093;43.224;27.910;2023-02-19T09:20:26;100477.31;;;18.87;47.77
11523;BME280;40093;43.224;27.910;2023-02-19T09:22:56;100475.25;;;19.07;47.87
11523;BME280;40093;43.224;27.910;2023-02-19T09:25:23;100473.75;;;19.22;47.21
11523;BME280;40093;43.224;27.910;2023-02-19T09:27:53;100477.69;;;19.40;46.93
11523;BME280;40093;43.224;27.910;2023-02-19T09:30:22;100479.31;;;19.38;46.58
11523;BME280;40093;43.224;27.910;2023-02-19T09:32:49;100483.34;;;19.37;46.72
11523;BME280;40093;43.224;27.910;2023-02-19T09:35:16;100481.56;;;19.43;46.42
11523;BME280;40093;43.224;27.910;2023-02-19T09:37:43;100492.94;;;19.36;46.82
11523;BME280;40093;43.224;27.910;2023-02-19T09:40:10;100489.69;;;19.37;46.80
11523;BME280;40093;43.224;27.910;2023-02-19T09:42:39;100487.53;;;19.45;46.79
11523;BME280;40093;43.224;27.910;2023-02-19T09:45:14;100491.38;;;19.35;46.32
11523;BME280;40093;43.224;27.910;2023-02-19T09:47:45;100495.19;;;19.25;46.56
11523;BME280;40093;43.224;27.910;2023-02-19T09:50:16;100491.94;;;19.26;46.51
11523;BME280;40093;43.224;27.910;2023-02-19T09:52:47;100501.66;;;19.38;46.23
11523;BME280;40093;43.224;27.910;2023-02-19T09:55:17;100486.13;;;19.37;46.02
11523;BME280;40093;43.224;27.910;2023-02-19T09:57:50;100481.78;;;19.36;46.26
11523;BME280;40093;43.224;27.910;2023-02-19T10:00:23;100485.25;;;19.40;46.77
11523;BME280;40093;43.224;27.910;2023-02-19T10:02:53;100476.81;;;19.27;46.57
11523;BME280;40093;43.224;27.910;2023-02-19T10:05:21;100479.66;;;19.40;46.09
11523;BME280;40093;43.224;27.910;2023-02-19T10:07:51;100478.78;;;19.43;46.41
11523;BME280;40093;43.224;27.910;2023-02-19T10:10:24;100476.81;;;19.59;46.04
11523;BME280;40093;43.224;27.910;2023-02-19T10:12:54;100466.84;;;19.58;46.18
11523;BME280;40093;43.224;27.910;2023-02-19T10:15:25;100455.94;;;19.64;45.96
11523;BME280;40093;43.224;27.910;2023-02-19T10:17:57;100468.06;;;19.73;45.48
11523;BME280;40093;43.224;27.910;2023-02-19T10:20:24;100460.22;;;19.36;45.72
11523;BME280;40093;43.224;27.910;2023-02-19T10:22:56;100460.34;;;18.97;46.46
11523;BME280;40093;43.224;27.910;2023-02-19T10:25:24;100454.84;;;19.10;46.34
11523;BME280;40093;43.224;27.910;2023-02-19T10:27:51;100446.66;;;19.03;46.42
11523;BME280;40093;43.224;27.910;2023-02-19T10:30:20;100447.69;;;18.93;46.93
11523;BME280;40093;43.224;27.910;2023-02-19T10:33:02;100430.34;;;19.01;47.04
11523;BME280;40093;43.224;27.910;2023-02-19T10:35:29;100427.84;;;19.07;46.16
11523;BME280;40093;43.224;27.910;2023-02-19T10:37:57;100426.22;;;19.25;45.04
11523;BME280;40093;43.224;27.910;2023-02-19T10:40:25;100430.69;;;19.23;45.47
11523;BME280;40093;43.224;27.910;2023-02-19T10:42:55;100422.53;;;19.44;45.58
11523;BME280;40093;43.224;27.910;2023-02-19T10:45:26;100427.00;;;19.26;45.90
11523;BME280;40093;43.224;27.910;2023-02-19T10:47:56;100416.06;;;19.15;46.07
11523;BME280;40093;43.224;27.910;2023-02-19T10:50:28;100415.81;;;19.10;46.39
11523;BME280;40093;43.224;27.910;2023-02-19T10:52:58;100410.22;;;19.10;46.61
11523;BME280;40093;43.224;27.910;2023-02-19T10:55:29;100411.44;;;19.09;46.24
11523;BME280;40093;43.224;27.910;2023-02-19T10:57:57;100407.22;;;19.20;46.24
11523;BME280;40093;43.224;27.910;2023-02-19T11:00:26;100412.69;;;19.40;45.87
11523;BME280;40093;43.224;27.910;2023-02-19T11:03:18;100400.47;;;19.50;45.72
11523;BME280;40093;43.224;27.910;2023-02-19T11:06:05;100385.75;;;19.49;45.56
11523;BME280;40093;43.224;27.910;2023-02-19T11:08:54;100394.88;;;19.50;44.95
11523;BME280;40093;43.224;27.910;2023-02-19T11:11:27;100397.03;;;19.58;44.84
11523;BME280;40093;43.224;27.910;2023-02-19T11:13:56;100383.84;;;19.75;44.66
11523;BME280;40093;43.224;27.910;2023-02-19T11:16:36;100375.19;;;19.85;44.69
11523;BME280;40093;43.224;27.910;2023-02-19T11:19:04;100382.63;;;19.76;45.29
11523;BME280;40093;43.224;27.910;2023-02-19T11:21:32;100377.00;;;19.92;44.53
11523;BME280;40093;43.224;27.910;2023-02-19T11:24:00;100370.41;;;19.86;44.27
11523;BME280;40093;43.224;27.910;2023-02-19T11:26:31;100367.81;;;19.63;44.74
11523;BME280;40093;43.224;27.910;2023-02-19T11:29:15;100374.88;;;19.67;45.12
11523;BME280;40093;43.224;27.910;2023-02-19T11:31:42;100366.75;;;19.73;45.39
11523;BME280;40093;43.224;27.910;2023-02-19T11:34:25;100360.22;;;20.08;45.01
11523;BME280;40093;43.224;27.910;2023-02-19T11:37:10;100370.16;;;19.80;45.25
11523;BME280;40093;43.224;27.910;2023-02-19T11:39:39;100361.16;;;19.73;45.20
11523;BME280;40093;43.224;27.910;2023-02-19T11:42:26;100356.88;;;19.40;45.52
11523;BME280;40093;43.224;27.910;2023-02-19T11:45:15;100373.19;;;19.41;45.76
11523;BME280;40093;43.224;27.910;2023-02-19T11:48:11;100370.28;;;19.61;45.33
11523;BME280;40093;43.224;27.910;2023-02-19T11:50:51;100376.16;;;19.79;45.37
11523;BME280;40093;43.224;27.910;2023-02-19T11:53:24;100371.16;;;19.86;44.97
11523;BME280;40093;43.224;27.910;2023-02-19T11:56:05;100360.66;;;19.90;45.22
11523;BME280;40093;43.224;27.910;2023-02-19T11:58:54;100346.13;;;20.11;44.87
11523;BME280;40093;43.224;27.910;2023-02-19T12:01:29;100334.31;;;20.20;44.33
11523;BME280;40093;43.224;27.910;2023-02-19T12:04:31;100336.47;;;20.00;44.57
11523;BME280;40093;43.224;27.910;2023-02-19T12:07:12;100331.50;;;19.79;44.61
11523;BME280;40093;43.224;27.910;2023-02-19T12:09:54;100326.66;;;19.79;44.95
11523;BME280;40093;43.224;27.910;2023-02-19T12:12:37;100330.53;;;19.98;44.50
11523;BME280;40093;43.224;27.910;2023-02-19T12:18:44;100326.00;;;19.75;44.25
11523;BME280;40093;43.224;27.910;2023-02-19T12:21:30;100312.19;;;19.84;43.98
11523;BME280;40093;43.224;27.910;2023-02-19T12:24:30;100330.44;;;19.73;44.01
11523;BME280;40093;43.224;27.910;2023-02-19T12:27:15;100320.72;;;19.65;43.98
11523;BME280;40093;43.224;27.910;2023-02-19T12:30:02;100317.06;;;19.52;44.33
11523;BME280;40093;43.224;27.910;2023-02-19T12:32:56;100306.97;;;19.42;44.51
11523;BME280;40093;43.224;27.910;2023-02-19T12:35:42;100316.31;;;19.51;44.20
11523;BME280;40093;43.224;27.910;2023-02-19T12:38:20;100308.06;;;19.32;44.47
11523;BME280;40093;43.224;27.910;2023-02-19T12:41:03;100303.69;;;19.31;45.02
11523;BME280;40093;43.224;27.910;2023-02-19T12:43:42;100314.72;;;19.22;45.62
11523;BME280;40093;43.224;27.910;2023-02-19T12:46:14;100310.66;;;19.39;45.32
11523;BME280;40093;43.224;27.910;2023-02-19T12:48:49;100306.41;;;19.34;45.12
11523;BME280;40093;43.224;27.910;2023-02-19T12:51:21;100298.56;;;19.29;45.30
11523;BME280;40093;43.224;27.910;2023-02-19T12:53:53;100309.81;;;19.26;45.03
11523;BME280;40093;43.224;27.910;2023-02-19T12:56:24;100307.13;;;19.22;45.08
11523;BME280;40093;43.224;27.910;2023-02-19T12:58:57;100291.63;;;19.21;45.02
11523;BME280;40093;43.224;27.910;2023-02-19T13:01:29;100296.41;;;19.21;45.18
11523;BME280;40093;43.224;27.910;2023-02-19T13:04:14;100300.41;;;19.20;45.18
11523;BME280;40093;43.224;27.910;2023-02-19T13:06:47;100292.63;;;19.11;45.59